createdAt,value
2023-07-17T00:00:12.125Z,6.90
2023-07-17T00:02:43.782Z,6.45
2023-07-17T00:05:11.971Z,5.82
2023-07-17T00:07:40.768Z,5.93
2023-07-17T00:10:08.996Z,5.97
2023-07-17T00:12:37.180Z,6.30
2023-07-17T00:15:07.612Z,6.55
2023-07-17T00:17:35.130Z,6.65
2023-07-17T00:20:06.640Z,6.03
2023-07-17T00:22:36.180Z,6.68
2023-07-17T00:25:05.588Z,6.15
2023-07-17T00:27:33.605Z,6.20
2023-07-17T00:30:01.845Z,7.03
2023-07-17T00:32:29.850Z,7.30
2023-07-17T00:34:57.481Z,6.65
2023-07-17T00:37:25.495Z,7.35
2023-07-17T00:39:53.393Z,7.35
2023-07-17T00:42:21.527Z,7.05
2023-07-17T00:44:50.033Z,7.38
2023-07-17T00:47:17.671Z,6.63
2023-07-17T00:49:45.425Z,6.90
2023-07-17T00:52:19.180Z,7.05
2023-07-17T00:54:46.971Z,6.22
2023-07-17T00:57:15.780Z,6.95
2023-07-17T00:59:43.358Z,6.47
2023-07-17T01:02:10.803Z,7.13
2023-07-17T01:04:39.033Z,7.43
2023-07-17T01:07:07.017Z,7.63
2023-07-17T01:09:37.584Z,8.38
2023-07-17T01:12:07.582Z,8.38
2023-07-17T01:14:35.927Z,9.77
2023-07-17T01:17:03.836Z,11.48
2023-07-17T01:19:31.555Z,12.25
2023-07-17T01:22:00.691Z,12.20
2023-07-17T01:24:28.016Z,13.43
2023-07-17T01:26:55.813Z,13.38
2023-07-17T01:29:23.080Z,13.48
2023-07-17T01:31:50.932Z,13.35
2023-07-17T01:34:19.157Z,14.05
2023-07-17T01:36:49.183Z,14.95
2023-07-17T01:39:17.178Z,13.68
2023-07-17T01:41:44.938Z,14.27
2023-07-17T01:44:12.987Z,14.52
2023-07-17T01:46:42.045Z,14.02
2023-07-17T01:49:11.382Z,13.68
2023-07-17T01:51:39.931Z,14.73
2023-07-17T01:54:07.892Z,15.35
2023-07-17T01:56:36.021Z,13.50
2023-07-17T01:59:04.165Z,14.65
2023-07-17T02:01:34.241Z,15.43
2023-07-17T02:04:03.639Z,14.95
2023-07-17T02:06:31.810Z,14.43
2023-07-17T02:08:59.848Z,13.90
2023-07-17T02:11:30.461Z,13.77
2023-07-17T02:13:58.064Z,12.75
2023-07-17T02:16:26.794Z,13.25
2023-07-17T02:18:54.749Z,13.85
2023-07-17T02:21:22.411Z,13.93
2023-07-17T02:23:50.710Z,14.52
2023-07-17T02:26:18.897Z,14.00
2023-07-17T02:28:47.066Z,16.25
2023-07-17T02:31:22.949Z,15.68
2023-07-17T02:36:18.475Z,16.00
2023-07-17T02:38:46.188Z,16.40
2023-07-17T02:41:14.909Z,16.17
2023-07-17T02:43:42.669Z,14.20
2023-07-17T02:46:10.818Z,12.90
2023-07-17T02:48:41.547Z,14.55
2023-07-17T02:51:09.934Z,14.57
2023-07-17T02:53:38.179Z,14.00
2023-07-17T02:56:06.583Z,14.52
2023-07-17T02:58:34.878Z,14.23
2023-07-17T03:01:03.045Z,14.93
2023-07-17T03:03:30.881Z,14.63
2023-07-17T03:06:00.087Z,14.15
2023-07-17T03:08:28.167Z,14.07
2023-07-17T03:10:56.580Z,13.98
2023-07-17T03:13:24.984Z,14.43
2023-07-17T03:15:53.218Z,15.45
2023-07-17T03:18:21.216Z,15.82
2023-07-17T03:20:49.371Z,15.55
2023-07-17T03:23:17.525Z,16.00
2023-07-17T03:25:45.679Z,16.73
2023-07-17T03:28:13.853Z,15.43
2023-07-17T03:30:41.424Z,15.63
2023-07-17T03:33:09.316Z,15.80
2023-07-17T03:35:37.523Z,16.15
2023-07-17T03:38:05.082Z,15.07
2023-07-17T03:40:33.188Z,16.00
2023-07-17T03:43:01.516Z,15.80
2023-07-17T03:45:29.831Z,15.07
2023-07-17T03:47:57.401Z,14.85
2023-07-17T03:50:25.080Z,15.52
2023-07-17T03:52:53.285Z,15.55
2023-07-17T03:55:21.518Z,15.45
2023-07-17T03:57:49.670Z,16.90
2023-07-17T04:00:18.184Z,16.77
2023-07-17T04:02:45.711Z,16.80
2023-07-17T04:05:13.891Z,16.17
2023-07-17T04:07:41.929Z,16.60
2023-07-17T04:10:11.491Z,17.42
2023-07-17T04:12:39.271Z,16.65
2023-07-17T04:15:10.017Z,17.55
2023-07-17T04:17:37.851Z,17.17
2023-07-17T04:20:11.890Z,17.45
2023-07-17T04:22:40.205Z,19.48
2023-07-17T04:25:11.012Z,17.80
2023-07-17T04:27:39.030Z,18.38
2023-07-17T04:30:11.100Z,18.30
2023-07-17T04:32:39.711Z,18.95
2023-07-17T04:35:09.875Z,18.20
2023-07-17T04:37:37.471Z,18.38
2023-07-17T04:40:07.943Z,18.65
2023-07-17T04:42:36.122Z,18.40
2023-07-17T04:45:10.296Z,17.42
2023-07-17T04:47:38.058Z,17.35
2023-07-17T04:50:09.179Z,18.00
2023-07-17T04:52:39.706Z,16.77
2023-07-17T04:55:10.710Z,17.50
2023-07-17T04:57:38.798Z,17.58
2023-07-17T05:00:11.099Z,17.23
2023-07-17T05:02:39.536Z,17.75
2023-07-17T05:05:09.532Z,18.88
2023-07-17T05:07:37.756Z,19.13
2023-07-17T05:10:09.288Z,19.00
2023-07-17T05:12:37.469Z,19.42
2023-07-17T05:15:06.078Z,18.55
2023-07-17T05:17:34.485Z,17.58
2023-07-17T05:20:02.294Z,16.73
2023-07-17T05:22:30.519Z,16.08
2023-07-17T05:24:58.506Z,15.73
2023-07-17T05:27:47.271Z,15.63
2023-07-17T05:30:16.659Z,15.13
2023-07-17T05:32:44.795Z,15.23
2023-07-17T05:35:12.729Z,15.88
2023-07-17T05:37:40.956Z,16.27
2023-07-17T05:40:12.905Z,16.83
2023-07-17T05:42:47.190Z,15.75
2023-07-17T05:45:15.575Z,14.18
2023-07-17T05:47:43.683Z,13.40
2023-07-17T05:50:11.920Z,14.38
2023-07-17T05:52:39.805Z,12.75
2023-07-17T05:55:08.998Z,12.88
2023-07-17T05:57:36.963Z,12.38
2023-07-17T06:00:07.899Z,9.43
2023-07-17T06:02:36.017Z,9.30
2023-07-17T06:05:04.219Z,9.77
2023-07-17T06:07:34.780Z,9.63
2023-07-17T06:10:03.228Z,8.60
2023-07-17T06:12:31.072Z,8.73
2023-07-17T06:14:59.016Z,8.77
2023-07-17T06:17:26.766Z,9.70
2023-07-17T06:19:54.911Z,11.48
2023-07-17T06:22:23.445Z,11.70
2023-07-17T06:24:51.196Z,11.38
2023-07-17T06:27:20.565Z,12.63
2023-07-17T06:29:48.406Z,11.55
2023-07-17T06:32:16.207Z,11.90
2023-07-17T06:34:44.215Z,9.63
2023-07-17T06:37:12.494Z,9.02
2023-07-17T06:39:40.847Z,8.65
2023-07-17T06:42:10.206Z,6.93
2023-07-17T06:44:38.316Z,6.55
2023-07-17T06:47:11.746Z,6.38
2023-07-17T06:49:49.040Z,7.13
2023-07-17T06:52:18.428Z,6.68
2023-07-17T06:55:02.252Z,7.95
2023-07-17T06:57:31.848Z,9.07
2023-07-17T07:00:00.012Z,9.40
2023-07-17T07:02:28.108Z,10.13
2023-07-17T07:04:55.950Z,9.70
2023-07-17T07:07:24.048Z,11.20
2023-07-17T07:09:52.233Z,9.75
2023-07-17T07:12:19.546Z,10.23
2023-07-17T07:14:47.516Z,11.18
2023-07-17T07:17:15.152Z,9.55
2023-07-17T07:19:43.954Z,9.65
2023-07-17T07:22:12.071Z,10.13
2023-07-17T07:24:42.921Z,10.77
2023-07-17T07:27:13.725Z,10.60
2023-07-17T07:29:41.284Z,9.73
2023-07-17T07:32:11.631Z,9.10
2023-07-17T07:34:40.126Z,10.88
2023-07-17T07:37:08.628Z,9.98
2023-07-17T07:39:36.718Z,9.85
2023-07-17T07:42:05.442Z,9.88
2023-07-17T07:44:36.041Z,9.90
2023-07-17T07:47:03.639Z,10.05
2023-07-17T07:49:31.604Z,9.57
2023-07-17T07:51:59.860Z,9.93
2023-07-17T07:54:27.513Z,9.50
2023-07-17T07:56:55.674Z,9.70
2023-07-17T07:59:23.496Z,9.75
2023-07-17T08:01:51.218Z,9.38
2023-07-17T08:04:19.852Z,8.93
2023-07-17T08:06:48.096Z,10.00
2023-07-17T08:09:16.319Z,9.65
2023-07-17T08:11:44.319Z,8.82
2023-07-17T08:14:11.983Z,8.25
2023-07-17T08:16:40.188Z,7.60
2023-07-17T08:19:07.976Z,7.60
2023-07-17T08:21:35.755Z,8.18
2023-07-17T08:24:04.045Z,8.05
2023-07-17T08:26:32.513Z,8.25
2023-07-17T08:29:02.108Z,8.50
2023-07-17T08:31:30.719Z,8.20
2023-07-17T08:33:58.646Z,7.47
2023-07-17T08:36:28.014Z,7.00
2023-07-17T08:38:55.921Z,7.03
2023-07-17T08:41:23.805Z,7.10
2023-07-17T08:43:52.114Z,7.85
2023-07-17T08:46:20.040Z,7.20
2023-07-17T08:48:49.388Z,8.07
2023-07-17T08:51:17.400Z,8.05
2023-07-17T08:53:48.525Z,8.35
2023-07-17T08:56:16.412Z,8.25
2023-07-17T08:58:44.562Z,7.85
2023-07-17T09:01:12.271Z,8.02
2023-07-17T09:03:39.686Z,8.18
2023-07-17T09:06:09.546Z,8.38
2023-07-17T09:08:37.816Z,8.23
2023-07-17T09:11:08.818Z,7.40
2023-07-17T09:13:43.723Z,8.05
2023-07-17T09:16:19.285Z,8.88
2023-07-17T09:19:10.771Z,7.63
2023-07-17T09:21:40.524Z,8.32
2023-07-17T09:24:09.538Z,7.95
2023-07-17T09:26:37.869Z,7.88
2023-07-17T09:29:05.681Z,7.82
2023-07-17T09:31:34.304Z,7.00
2023-07-17T09:34:02.560Z,8.00
2023-07-17T09:36:30.810Z,7.78
2023-07-17T09:39:00.425Z,7.63
2023-07-17T09:41:28.868Z,8.20
2023-07-17T09:44:01.548Z,6.88
2023-07-17T09:46:29.847Z,7.40
2023-07-17T09:48:58.033Z,6.88
2023-07-17T09:51:26.302Z,7.03
2023-07-17T09:53:54.297Z,7.22
2023-07-17T09:56:21.908Z,6.78
2023-07-17T09:58:50.146Z,7.15
2023-07-17T10:01:20.914Z,7.15
2023-07-17T10:03:49.606Z,6.63
2023-07-17T10:06:18.418Z,7.57
2023-07-17T10:08:47.989Z,6.65
2023-07-17T10:11:19.642Z,7.97
2023-07-17T10:13:50.793Z,7.75
2023-07-17T10:16:20.002Z,7.70
2023-07-17T10:19:10.238Z,7.32
2023-07-17T10:21:54.219Z,6.90
2023-07-17T10:24:26.365Z,6.45
2023-07-17T10:26:54.574Z,6.25
2023-07-17T10:29:43.726Z,5.00
2023-07-17T10:32:11.697Z,5.65
2023-07-17T10:34:49.924Z,4.93
2023-07-17T10:37:31.688Z,4.75
2023-07-17T10:40:09.659Z,4.82
2023-07-17T10:42:37.520Z,5.05
2023-07-17T10:45:13.188Z,4.70
2023-07-17T10:50:09.991Z,4.07
2023-07-17T10:52:38.119Z,4.72
2023-07-17T10:55:06.976Z,4.95
2023-07-17T10:57:34.852Z,4.05
2023-07-17T11:00:01.970Z,4.50
2023-07-17T11:02:33.560Z,4.15
2023-07-17T11:05:04.240Z,4.07
2023-07-17T11:07:35.482Z,4.05
2023-07-17T11:10:03.328Z,4.68
2023-07-17T11:12:31.470Z,4.03
2023-07-17T11:14:59.683Z,4.30
2023-07-17T11:17:27.973Z,4.22
2023-07-17T11:20:04.820Z,4.60
2023-07-17T11:22:33.237Z,4.25
2023-07-17T11:25:00.471Z,3.97
2023-07-17T11:27:28.122Z,4.63
2023-07-17T11:29:55.362Z,4.63
2023-07-17T11:32:23.768Z,4.70
2023-07-17T11:34:55.605Z,4.70
2023-07-17T11:37:36.017Z,4.60
2023-07-17T11:40:10.123Z,4.32
2023-07-17T11:42:59.942Z,4.20
2023-07-17T11:45:27.933Z,4.45
2023-07-17T11:47:56.446Z,4.30
2023-07-17T11:50:28.163Z,4.30
2023-07-17T11:53:13.883Z,4.40
2023-07-17T11:55:41.930Z,4.38
2023-07-17T11:58:20.276Z,4.10
2023-07-17T12:00:50.412Z,4.05
2023-07-17T12:03:17.981Z,4.22
2023-07-17T12:05:46.962Z,3.83
2023-07-17T12:08:15.113Z,3.90
2023-07-17T12:10:43.337Z,4.13
2023-07-17T12:13:13.589Z,4.20
2023-07-17T12:15:41.236Z,4.13
2023-07-17T12:18:09.439Z,4.30
2023-07-17T12:20:37.167Z,3.80
2023-07-17T12:23:06.682Z,3.92
2023-07-17T12:25:34.483Z,4.53
2023-07-17T12:28:02.587Z,4.15
2023-07-17T12:30:31.371Z,4.45
2023-07-17T12:33:01.877Z,4.10
2023-07-17T12:35:30.517Z,3.75
2023-07-17T12:37:58.519Z,4.13
2023-07-17T12:40:26.593Z,4.22
2023-07-17T12:42:54.511Z,3.88
2023-07-17T12:45:22.253Z,4.20
2023-07-17T12:47:50.072Z,4.07
2023-07-17T12:50:17.895Z,4.07
2023-07-17T12:52:46.023Z,4.28
2023-07-17T12:55:14.122Z,4.47
2023-07-17T12:57:42.321Z,3.75
2023-07-17T13:00:12.740Z,4.43
2023-07-17T13:02:41.099Z,3.92
2023-07-17T13:05:09.275Z,4.20
2023-07-17T13:07:39.247Z,4.07
2023-07-17T13:10:08.192Z,3.80
2023-07-17T13:12:47.453Z,4.53
2023-07-17T13:15:17.406Z,4.20
2023-07-17T13:17:46.500Z,4.70
2023-07-17T13:20:15.182Z,4.10
2023-07-17T13:22:43.057Z,4.30
2023-07-17T13:25:11.696Z,4.38
2023-07-17T13:27:39.904Z,4.57
2023-07-17T13:30:10.844Z,4.32
2023-07-17T13:32:42.117Z,4.38
2023-07-17T13:35:11.169Z,4.82
2023-07-17T13:37:38.731Z,4.55
2023-07-17T13:40:09.825Z,4.20
2023-07-17T13:42:38.022Z,4.20
2023-07-17T13:45:08.768Z,4.47
2023-07-17T13:47:36.964Z,4.53
2023-07-17T13:50:08.753Z,4.18
2023-07-17T13:52:36.949Z,4.35
2023-07-17T13:55:06.014Z,4.45
2023-07-17T13:57:34.157Z,4.15
2023-07-17T14:00:02.965Z,4.00
2023-07-17T14:02:31.081Z,4.10
2023-07-17T14:04:59.207Z,3.65
2023-07-17T14:07:27.708Z,4.30
2023-07-17T14:09:55.865Z,4.38
2023-07-17T14:12:23.943Z,4.53
2023-07-17T14:14:52.181Z,4.18
2023-07-17T14:17:19.745Z,4.35
2023-07-17T14:19:47.829Z,4.25
2023-07-17T14:22:16.236Z,3.70
2023-07-17T14:24:44.848Z,4.57
2023-07-17T14:27:12.973Z,4.50
2023-07-17T14:29:41.283Z,4.20
2023-07-17T14:32:10.710Z,4.60
2023-07-17T14:34:42.548Z,4.18
2023-07-17T14:37:10.262Z,4.13
2023-07-17T14:39:38.498Z,4.00
2023-07-17T14:42:08.359Z,4.18
2023-07-17T14:44:36.523Z,4.00
2023-07-17T14:47:07.399Z,3.70
2023-07-17T14:49:36.900Z,4.53
2023-07-17T14:52:10.009Z,4.63
2023-07-17T14:54:38.171Z,4.30
2023-07-17T14:57:07.959Z,4.50
2023-07-17T14:59:35.578Z,4.20
2023-07-17T15:02:03.204Z,4.65
2023-07-17T15:04:31.299Z,5.05
2023-07-17T15:07:00.091Z,4.22
2023-07-17T15:09:28.622Z,4.40
2023-07-17T15:11:56.767Z,4.00
2023-07-17T15:14:27.261Z,4.22
2023-07-17T15:16:56.236Z,4.22
2023-07-17T15:19:24.390Z,4.22
2023-07-17T15:21:52.396Z,4.38
2023-07-17T15:24:20.455Z,4.53
2023-07-17T15:26:50.579Z,4.50
2023-07-17T15:29:18.312Z,4.35
2023-07-17T15:31:46.590Z,4.10
2023-07-17T15:34:14.933Z,3.80
2023-07-17T15:36:43.484Z,3.78
2023-07-17T15:39:11.242Z,4.28
2023-07-17T15:41:39.151Z,3.80
2023-07-17T15:44:07.463Z,3.83
2023-07-17T15:46:35.265Z,4.38
2023-07-17T15:49:03.973Z,4.25
2023-07-17T15:51:31.781Z,4.32
2023-07-17T15:54:00.163Z,4.00
2023-07-17T15:56:28.569Z,4.05
2023-07-17T15:58:56.332Z,4.00
2023-07-17T16:01:24.021Z,3.75
2023-07-17T16:03:55.378Z,3.50
2023-07-17T16:06:23.287Z,3.65
2023-07-17T16:08:50.981Z,4.13
2023-07-17T16:11:18.064Z,4.03
2023-07-17T16:13:45.801Z,3.92
2023-07-17T16:16:14.033Z,3.63
2023-07-17T16:18:42.137Z,4.47
2023-07-17T16:21:10.231Z,3.95
2023-07-17T16:23:38.055Z,4.55
2023-07-17T16:26:07.434Z,5.25
2023-07-17T16:28:35.704Z,4.10
2023-07-17T16:31:29.147Z,4.07
2023-07-17T16:33:56.908Z,3.88
2023-07-17T16:36:26.481Z,3.40
2023-07-17T16:38:54.541Z,3.72
2023-07-17T16:41:22.696Z,4.05
2023-07-17T16:43:50.519Z,3.85
2023-07-17T16:46:22.132Z,4.30
2023-07-17T16:48:50.324Z,4.18
2023-07-17T16:51:17.967Z,3.90
2023-07-17T16:53:48.840Z,3.20
2023-07-17T16:56:17.305Z,4.00
2023-07-17T16:58:45.470Z,4.22
2023-07-17T17:01:13.677Z,3.97
2023-07-17T17:03:42.687Z,4.18
2023-07-17T17:06:10.699Z,4.53
2023-07-17T17:08:38.832Z,3.40
2023-07-17T17:11:07.037Z,4.10
2023-07-17T17:13:35.564Z,4.22
2023-07-17T17:16:03.861Z,3.65
2023-07-17T17:18:32.345Z,3.60
2023-07-17T17:21:00.521Z,4.18
2023-07-17T17:23:28.690Z,3.75
2023-07-17T17:25:56.649Z,3.90
2023-07-17T17:28:28.344Z,4.10
2023-07-17T17:30:56.325Z,3.90
2023-07-17T17:33:24.769Z,3.60
2023-07-17T17:35:52.969Z,3.75
2023-07-17T17:38:20.973Z,3.60
2023-07-17T17:40:49.410Z,4.10
2023-07-17T17:43:17.024Z,3.45
2023-07-17T17:45:53.515Z,3.65
2023-07-17T17:48:21.237Z,3.72
2023-07-17T17:50:49.036Z,4.22
2023-07-17T17:53:17.157Z,4.00
2023-07-17T17:55:44.741Z,4.03
2023-07-17T17:58:12.894Z,3.90
2023-07-17T18:00:41.088Z,4.10
2023-07-17T18:03:09.284Z,3.90
2023-07-17T18:05:37.545Z,4.05
2023-07-17T18:08:06.538Z,3.40
2023-07-17T18:10:36.527Z,3.80
2023-07-17T18:13:07.672Z,4.28
2023-07-17T18:15:35.370Z,3.70
2023-07-17T18:18:03.592Z,3.90
2023-07-17T18:20:32.096Z,3.63
2023-07-17T18:23:00.357Z,4.25
2023-07-17T18:25:28.672Z,4.28
2023-07-17T18:27:56.364Z,4.22
2023-07-17T18:30:25.678Z,4.47
2023-07-17T18:32:53.709Z,4.00
2023-07-17T18:35:21.714Z,4.38
2023-07-17T18:37:50.086Z,5.00
2023-07-17T18:40:18.543Z,4.50
2023-07-17T18:42:46.851Z,4.93
2023-07-17T18:45:14.520Z,4.88
2023-07-17T18:47:42.611Z,4.70
2023-07-17T18:50:11.185Z,3.92
2023-07-17T18:52:39.372Z,4.35
2023-07-17T18:55:09.104Z,4.13
2023-07-17T18:57:39.554Z,5.13
2023-07-17T19:00:10.401Z,4.38
2023-07-17T19:02:40.094Z,4.45
2023-07-17T19:05:09.987Z,4.63
2023-07-17T19:07:38.159Z,4.55
2023-07-17T19:10:08.617Z,4.82
2023-07-17T19:12:36.312Z,5.38
2023-07-17T19:15:06.242Z,4.63
2023-07-17T19:17:36.278Z,4.90
2023-07-17T19:20:05.355Z,5.57
2023-07-17T19:22:33.563Z,4.45
2023-07-17T19:25:01.414Z,5.13
2023-07-17T19:27:29.619Z,6.30
2023-07-17T19:29:57.502Z,6.07
2023-07-17T19:32:27.140Z,5.22
2023-07-17T19:34:55.295Z,5.78
2023-07-17T19:37:23.814Z,5.22
2023-07-17T19:39:52.320Z,5.05
2023-07-17T19:42:20.429Z,5.32
2023-07-17T19:44:48.359Z,5.57
2023-07-17T19:47:16.537Z,5.70
2023-07-17T19:49:44.532Z,5.72
2023-07-17T19:52:12.566Z,5.43
2023-07-17T19:54:41.100Z,6.32
2023-07-17T19:57:09.815Z,5.85
2023-07-17T19:59:42.333Z,6.70
2023-07-17T20:02:10.272Z,5.78
2023-07-17T20:04:38.412Z,4.68
2023-07-17T20:07:07.545Z,4.75
2023-07-17T20:09:36.383Z,5.55
2023-07-17T20:12:05.371Z,5.45
2023-07-17T20:14:33.561Z,5.60
2023-07-17T20:17:08.469Z,4.50
2023-07-17T20:19:40.215Z,5.00
2023-07-17T20:22:08.301Z,4.97
2023-07-17T20:24:36.447Z,5.20
2023-07-17T20:27:04.532Z,5.13
2023-07-17T20:29:32.700Z,4.85
2023-07-17T20:32:00.806Z,5.55
2023-07-17T20:34:32.045Z,5.50
2023-07-17T20:36:59.903Z,5.53
2023-07-17T20:39:28.129Z,5.75
2023-07-17T20:41:55.778Z,5.82
2023-07-17T20:44:23.474Z,5.55
2023-07-17T20:46:51.609Z,5.20
2023-07-17T20:49:19.928Z,5.75
2023-07-17T20:51:50.408Z,5.47
2023-07-17T20:54:20.624Z,5.38
2023-07-17T20:56:48.283Z,4.95
2023-07-17T20:59:16.609Z,5.32
2023-07-17T21:01:45.070Z,5.70
2023-07-17T21:04:13.046Z,5.35
2023-07-17T21:06:41.929Z,5.13
2023-07-17T21:09:09.676Z,4.80
2023-07-17T21:11:37.513Z,4.93
2023-07-17T21:14:05.999Z,5.68
2023-07-17T21:16:34.117Z,5.60
2023-07-17T21:19:05.412Z,5.57
2023-07-17T21:21:33.604Z,6.00
2023-07-17T21:24:01.613Z,4.88
2023-07-17T21:26:29.619Z,5.40
2023-07-17T21:29:03.264Z,4.85
2023-07-17T21:31:33.133Z,4.82
2023-07-17T21:34:01.685Z,5.03
2023-07-17T21:36:29.608Z,6.53
2023-07-17T21:38:57.719Z,5.18
2023-07-17T21:41:25.876Z,6.50
2023-07-17T21:43:53.951Z,7.13
2023-07-17T21:46:22.379Z,8.00
2023-07-17T21:48:50.467Z,6.75
2023-07-17T21:51:20.714Z,6.40
2023-07-17T21:53:49.793Z,6.00
2023-07-17T21:56:17.984Z,5.47
2023-07-17T21:58:46.253Z,5.63
2023-07-17T22:01:14.365Z,5.70
2023-07-17T22:03:42.157Z,5.43
2023-07-17T22:06:09.970Z,5.45
2023-07-17T22:08:37.535Z,4.68
2023-07-17T22:11:05.095Z,5.28
2023-07-17T22:13:36.340Z,5.38
2023-07-17T22:16:04.518Z,5.25
2023-07-17T22:18:32.682Z,5.47
2023-07-17T22:20:59.883Z,6.18
2023-07-17T22:23:28.136Z,7.10
2023-07-17T22:25:56.207Z,6.72
2023-07-17T22:28:24.264Z,6.85
2023-07-17T22:30:52.280Z,6.38
2023-07-17T22:33:20.424Z,5.60
2023-07-17T22:35:48.006Z,5.78
2023-07-17T22:38:16.225Z,6.10
2023-07-17T22:40:45.120Z,6.18
2023-07-17T22:43:13.273Z,5.60
2023-07-17T22:45:44.338Z,5.38
2023-07-17T22:48:13.640Z,5.30
2023-07-17T22:50:41.776Z,5.03
2023-07-17T22:53:10.406Z,4.25
2023-07-17T22:55:43.265Z,3.80
2023-07-17T22:58:11.250Z,3.55
2023-07-17T23:00:38.972Z,3.50
2023-07-17T23:03:06.711Z,3.40
2023-07-17T23:05:35.054Z,3.30
2023-07-17T23:08:02.797Z,3.55
2023-07-17T23:10:29.517Z,3.22
2023-07-17T23:12:57.062Z,4.10
2023-07-17T23:15:26.310Z,3.28
2023-07-17T23:17:53.991Z,3.50
2023-07-17T23:20:22.822Z,3.20
2023-07-17T23:22:50.922Z,3.47
2023-07-17T23:25:19.330Z,3.95
2023-07-17T23:27:47.490Z,3.47
2023-07-17T23:30:15.287Z,3.97
2023-07-17T23:32:45.018Z,3.63
2023-07-17T23:35:12.766Z,3.50
2023-07-17T23:37:40.706Z,3.90
2023-07-17T23:40:10.539Z,4.15
2023-07-17T23:42:41.060Z,4.35
2023-07-17T23:45:10.993Z,4.03
2023-07-17T23:47:39.066Z,4.05
2023-07-17T23:50:09.138Z,3.72
2023-07-17T23:52:37.390Z,4.43
2023-07-17T23:55:06.693Z,4.15
2023-07-17T23:57:34.487Z,4.20
